マヘ島 の空港の天気 - METARとTAF

セーシェル国際空港 ( FSIA / SEZ ) - セーシェル マヘ島
飛行場実況気象(Metar)
観測時間11/27 13:00 SCT (11/27 09:00 UTC)
風向・風速北西 7m/s
視程10km以上
天気現象
少しの雲 雲底高度 730m
気温30℃
湿度66%
気圧1007hPa
METARFSIA 270900Z 31014KT 9999 FEW024 30/23 Q1007 NOSIG
過去の天気等 Google飛行場航空写真 Wunderground天気予報

過去48時間のMETAR

飛行場予報(TAF)
発表時間: 11/27 09:05 SCT (11/27 05:05 UTC)
予報対象時間: 27日10時 SCT ~ 28日10時 SCT
風向・風速西北西 3m/s
視程10km以上
少しの雲 雲底高度 730m
TAF FSIA 270505Z 2706/2806 30005KT 9999 FEW024